sensor_id;sensor_type;location;lat;lon;timestamp;P1;durP1;ratioP1;P2;durP2;ratioP2
5414;SDS011;2730;51.512;7.504;2023-04-01T00:01:03;1.30;;;1.00;;
5414;SDS011;2730;51.512;7.504;2023-04-01T00:03:31;1.10;;;1.00;;
5414;SDS011;2730;51.512;7.504;2023-04-01T00:05:59;2.42;;;0.98;;
5414;SDS011;2730;51.512;7.504;2023-04-01T00:08:26;1.00;;;0.90;;
5414;SDS011;2730;51.512;7.504;2023-04-01T00:10:53;2.10;;;0.80;;
5414;SDS011;2730;51.512;7.504;2023-04-01T00:13:23;1.60;;;1.00;;
5414;SDS011;2730;51.512;7.504;2023-04-01T00:15:51;3.50;;;1.10;;
5414;SDS011;2730;51.512;7.504;2023-04-01T00:18:18;1.10;;;1.00;;
5414;SDS011;2730;51.512;7.504;2023-04-01T00:20:45;0.93;;;0.90;;
5414;SDS011;2730;51.512;7.504;2023-04-01T00:23:14;2.25;;;1.00;;
5414;SDS011;2730;51.512;7.504;2023-04-01T00:25:41;0.85;;;0.85;;
5414;SDS011;2730;51.512;7.504;2023-04-01T00:28:10;1.10;;;1.00;;
5414;SDS011;2730;51.512;7.504;2023-04-01T00:30:38;1.50;;;1.00;;
5414;SDS011;2730;51.512;7.504;2023-04-01T00:33:05;0.90;;;0.90;;
5414;SDS011;2730;51.512;7.504;2023-04-01T00:35:31;1.00;;;0.90;;
5414;SDS011;2730;51.512;7.504;2023-04-01T00:37:58;2.55;;;1.17;;
5414;SDS011;2730;51.512;7.504;2023-04-01T00:40:26;2.15;;;1.00;;
5414;SDS011;2730;51.512;7.504;2023-04-01T00:42:55;6.57;;;1.08;;
5414;SDS011;2730;51.512;7.504;2023-04-01T00:45:26;3.08;;;1.05;;
5414;SDS011;2730;51.512;7.504;2023-04-01T00:47:57;4.10;;;1.23;;
5414;SDS011;2730;51.512;7.504;2023-04-01T00:50:27;1.88;;;0.82;;
5414;SDS011;2730;51.512;7.504;2023-04-01T00:52:56;2.42;;;1.17;;
5414;SDS011;2730;51.512;7.504;2023-04-01T00:55:25;1.23;;;1.00;;
5414;SDS011;2730;51.512;7.504;2023-04-01T00:57:54;1.70;;;1.00;;
5414;SDS011;2730;51.512;7.504;2023-04-01T01:00:23;2.75;;;1.50;;
5414;SDS011;2730;51.512;7.504;2023-04-01T01:02:51;0.90;;;0.90;;
5414;SDS011;2730;51.512;7.504;2023-04-01T01:05:20;2.35;;;0.80;;
5414;SDS011;2730;51.512;7.504;2023-04-01T01:07:57;0.95;;;0.90;;
5414;SDS011;2730;51.512;7.504;2023-04-01T01:10:30;0.80;;;0.80;;
5414;SDS011;2730;51.512;7.504;2023-04-01T01:13:01;1.70;;;0.90;;
5414;SDS011;2730;51.512;7.504;2023-04-01T01:15:34;0.90;;;0.73;;
5414;SDS011;2730;51.512;7.504;2023-04-01T01:18:09;1.98;;;0.90;;
5414;SDS011;2730;51.512;7.504;2023-04-01T01:23:53;1.58;;;0.80;;
5414;SDS011;2730;51.512;7.504;2023-04-01T01:26:37;0.80;;;0.80;;
5414;SDS011;2730;51.512;7.504;2023-04-01T01:29:13;0.80;;;0.80;;
5414;SDS011;2730;51.512;7.504;2023-04-01T01:31:53;1.40;;;0.90;;
5414;SDS011;2730;51.512;7.504;2023-04-01T01:34:28;0.80;;;0.80;;
5414;SDS011;2730;51.512;7.504;2023-04-01T01:37:05;1.48;;;0.93;;
5414;SDS011;2730;51.512;7.504;2023-04-01T01:39:35;1.15;;;1.10;;
5414;SDS011;2730;51.512;7.504;2023-04-01T01:42:04;1.70;;;0.90;;
5414;SDS011;2730;51.512;7.504;2023-04-01T01:44:33;1.00;;;0.90;;
5414;SDS011;2730;51.512;7.504;2023-04-01T01:47:03;1.60;;;0.90;;
5414;SDS011;2730;51.512;7.504;2023-04-01T01:49:31;1.20;;;1.10;;
5414;SDS011;2730;51.512;7.504;2023-04-01T01:51:59;1.33;;;1.20;;
5414;SDS011;2730;51.512;7.504;2023-04-01T01:54:27;1.33;;;0.90;;
5414;SDS011;2730;51.512;7.504;2023-04-01T01:56:55;1.17;;;1.10;;
5414;SDS011;2730;51.512;7.504;2023-04-01T01:59:30;1.98;;;1.10;;
5414;SDS011;2730;51.512;7.504;2023-04-01T02:02:01;2.05;;;1.00;;
5414;SDS011;2730;51.512;7.504;2023-04-01T02:04:33;1.00;;;1.00;;
5414;SDS011;2730;51.512;7.504;2023-04-01T02:07:01;0.93;;;0.93;;
5414;SDS011;2730;51.512;7.504;2023-04-01T02:09:32;1.00;;;1.00;;
5414;SDS011;2730;51.512;7.504;2023-04-01T02:12:00;1.23;;;1.13;;
5414;SDS011;2730;51.512;7.504;2023-04-01T02:14:31;2.45;;;1.10;;
5414;SDS011;2730;51.512;7.504;2023-04-01T02:17:06;1.00;;;1.00;;
5414;SDS011;2730;51.512;7.504;2023-04-01T02:19:36;0.85;;;0.85;;
5414;SDS011;2730;51.512;7.504;2023-04-01T02:22:06;0.90;;;0.90;;
5414;SDS011;2730;51.512;7.504;2023-04-01T02:24:38;1.83;;;1.00;;
5414;SDS011;2730;51.512;7.504;2023-04-01T02:27:08;6.90;;;1.40;;
5414;SDS011;2730;51.512;7.504;2023-04-01T02:29:35;1.83;;;0.90;;
5414;SDS011;2730;51.512;7.504;2023-04-01T02:32:02;2.70;;;0.80;;
5414;SDS011;2730;51.512;7.504;2023-04-01T02:34:30;0.93;;;0.93;;
5414;SDS011;2730;51.512;7.504;2023-04-01T02:36:58;0.90;;;0.90;;
5414;SDS011;2730;51.512;7.504;2023-04-01T02:39:25;1.73;;;1.33;;
5414;SDS011;2730;51.512;7.504;2023-04-01T02:41:53;0.77;;;0.77;;
5414;SDS011;2730;51.512;7.504;2023-04-01T02:44:20;1.70;;;0.90;;
5414;SDS011;2730;51.512;7.504;2023-04-01T02:46:47;1.83;;;0.90;;
5414;SDS011;2730;51.512;7.504;2023-04-01T02:49:14;0.95;;;0.95;;
5414;SDS011;2730;51.512;7.504;2023-04-01T02:51:43;1.00;;;0.80;;
5414;SDS011;2730;51.512;7.504;2023-04-01T02:54:10;0.90;;;0.80;;
5414;SDS011;2730;51.512;7.504;2023-04-01T02:56:37;0.85;;;0.80;;
5414;SDS011;2730;51.512;7.504;2023-04-01T02:59:05;1.80;;;1.00;;
5414;SDS011;2730;51.512;7.504;2023-04-01T03:01:31;0.80;;;0.80;;
5414;SDS011;2730;51.512;7.504;2023-04-01T03:03:58;0.90;;;0.90;;
5414;SDS011;2730;51.512;7.504;2023-04-01T03:06:25;1.17;;;1.00;;
5414;SDS011;2730;51.512;7.504;2023-04-01T03:08:52;0.75;;;0.75;;
5414;SDS011;2730;51.512;7.504;2023-04-01T03:11:18;3.25;;;0.80;;
5414;SDS011;2730;51.512;7.504;2023-04-01T03:13:46;0.85;;;0.85;;
5414;SDS011;2730;51.512;7.504;2023-04-01T03:16:15;0.70;;;0.70;;
5414;SDS011;2730;51.512;7.504;2023-04-01T03:18:41;1.35;;;0.70;;
5414;SDS011;2730;51.512;7.504;2023-04-01T03:21:12;2.55;;;1.00;;
5414;SDS011;2730;51.512;7.504;2023-04-01T03:23:42;2.85;;;0.90;;
5414;SDS011;2730;51.512;7.504;2023-04-01T03:26:09;1.08;;;0.93;;
5414;SDS011;2730;51.512;7.504;2023-04-01T03:28:36;4.55;;;0.90;;
5414;SDS011;2730;51.512;7.504;2023-04-01T03:31:03;0.80;;;0.80;;
5414;SDS011;2730;51.512;7.504;2023-04-01T03:33:31;0.70;;;0.70;;
5414;SDS011;2730;51.512;7.504;2023-04-01T03:35:58;1.00;;;0.80;;
5414;SDS011;2730;51.512;7.504;2023-04-01T03:38:25;1.17;;;0.70;;
5414;SDS011;2730;51.512;7.504;2023-04-01T03:40:51;1.35;;;0.70;;
5414;SDS011;2730;51.512;7.504;2023-04-01T03:43:18;0.80;;;0.80;;
5414;SDS011;2730;51.512;7.504;2023-04-01T03:45:45;2.83;;;0.95;;
5414;SDS011;2730;51.512;7.504;2023-04-01T03:48:13;0.70;;;0.70;;
5414;SDS011;2730;51.512;7.504;2023-04-01T03:50:41;1.45;;;0.80;;
5414;SDS011;2730;51.512;7.504;2023-04-01T03:53:08;1.70;;;0.80;;
5414;SDS011;2730;51.512;7.504;2023-04-01T03:55:36;0.77;;;0.77;;
5414;SDS011;2730;51.512;7.504;2023-04-01T03:58:03;0.90;;;0.80;;
5414;SDS011;2730;51.512;7.504;2023-04-01T04:00:30;1.55;;;0.80;;
5414;SDS011;2730;51.512;7.504;2023-04-01T04:02:57;0.80;;;0.80;;
5414;SDS011;2730;51.512;7.504;2023-04-01T04:05:25;1.05;;;0.95;;
5414;SDS011;2730;51.512;7.504;2023-04-01T04:07:54;0.70;;;0.70;;
5414;SDS011;2730;51.512;7.504;2023-04-01T04:10:21;0.70;;;0.70;;
5414;SDS011;2730;51.512;7.504;2023-04-01T04:12:50;0.77;;;0.77;;
5414;SDS011;2730;51.512;7.504;2023-04-01T04:15:17;0.70;;;0.70;;
5414;SDS011;2730;51.512;7.504;2023-04-01T04:17:45;0.60;;;0.60;;
5414;SDS011;2730;51.512;7.504;2023-04-01T04:20:11;0.80;;;0.80;;
5414;SDS011;2730;51.512;7.504;2023-04-01T04:22:38;0.80;;;0.80;;
5414;SDS011;2730;51.512;7.504;2023-04-01T04:25:07;2.45;;;0.75;;
5414;SDS011;2730;51.512;7.504;2023-04-01T04:27:34;3.30;;;0.80;;
5414;SDS011;2730;51.512;7.504;2023-04-01T04:30:02;1.65;;;0.80;;
5414;SDS011;2730;51.512;7.504;2023-04-01T04:32:29;0.80;;;0.80;;
5414;SDS011;2730;51.512;7.504;2023-04-01T04:34:56;0.85;;;0.85;;
5414;SDS011;2730;51.512;7.504;2023-04-01T04:37:23;1.10;;;1.00;;
5414;SDS011;2730;51.512;7.504;2023-04-01T04:39:50;0.90;;;0.90;;
5414;SDS011;2730;51.512;7.504;2023-04-01T04:42:18;1.10;;;1.00;;
5414;SDS011;2730;51.512;7.504;2023-04-01T04:44:45;1.23;;;1.13;;
5414;SDS011;2730;51.512;7.504;2023-04-01T04:47:12;1.63;;;1.10;;
5414;SDS011;2730;51.512;7.504;2023-04-01T04:49:39;1.15;;;1.08;;
5414;SDS011;2730;51.512;7.504;2023-04-01T04:52:06;1.38;;;1.27;;
5414;SDS011;2730;51.512;7.504;2023-04-01T04:54:33;1.02;;;1.02;;
5414;SDS011;2730;51.512;7.504;2023-04-01T04:56:59;1.80;;;1.40;;
5414;SDS011;2730;51.512;7.504;2023-04-01T04:59:27;1.52;;;1.42;;
5414;SDS011;2730;51.512;7.504;2023-04-01T05:01:54;1.45;;;1.35;;
5414;SDS011;2730;51.512;7.504;2023-04-01T05:04:21;1.20;;;1.10;;
5414;SDS011;2730;51.512;7.504;2023-04-01T05:06:48;4.60;;;1.40;;
5414;SDS011;2730;51.512;7.504;2023-04-01T05:09:14;3.30;;;1.30;;
5414;SDS011;2730;51.512;7.504;2023-04-01T05:11:41;2.33;;;1.20;;
5414;SDS011;2730;51.512;7.504;2023-04-01T05:14:11;1.75;;;1.40;;
5414;SDS011;2730;51.512;7.504;2023-04-01T05:16:40;2.28;;;1.23;;
5414;SDS011;2730;51.512;7.504;2023-04-01T05:19:07;1.25;;;1.15;;
5414;SDS011;2730;51.512;7.504;2023-04-01T05:21:33;1.35;;;1.25;;
5414;SDS011;2730;51.512;7.504;2023-04-01T05:24:00;1.20;;;1.10;;
5414;SDS011;2730;51.512;7.504;2023-04-01T05:26:27;1.00;;;1.00;;
5414;SDS011;2730;51.512;7.504;2023-04-01T05:28:54;1.50;;;1.40;;
5414;SDS011;2730;51.512;7.504;2023-04-01T05:31:21;1.42;;;1.33;;
5414;SDS011;2730;51.512;7.504;2023-04-01T05:33:50;1.80;;;1.30;;
5414;SDS011;2730;51.512;7.504;2023-04-01T05:36:17;1.40;;;1.30;;
5414;SDS011;2730;51.512;7.504;2023-04-01T05:38:43;3.92;;;1.10;;
5414;SDS011;2730;51.512;7.504;2023-04-01T05:41:12;1.77;;;1.30;;
5414;SDS011;2730;51.512;7.504;2023-04-01T05:43:39;1.38;;;1.23;;
5414;SDS011;2730;51.512;7.504;2023-04-01T05:46:07;1.20;;;1.10;;
5414;SDS011;2730;51.512;7.504;2023-04-01T05:48:34;1.10;;;1.00;;
5414;SDS011;2730;51.512;7.504;2023-04-01T05:51:03;1.13;;;1.02;;
5414;SDS011;2730;51.512;7.504;2023-04-01T05:53:30;1.00;;;1.00;;
5414;SDS011;2730;51.512;7.504;2023-04-01T05:56:01;1.25;;;1.15;;
5414;SDS011;2730;51.512;7.504;2023-04-01T05:58:29;1.10;;;1.10;;
5414;SDS011;2730;51.512;7.504;2023-04-01T06:00:59;1.15;;;1.00;;
5414;SDS011;2730;51.512;7.504;2023-04-01T06:03:27;1.00;;;1.00;;
5414;SDS011;2730;51.512;7.504;2023-04-01T06:05:54;1.00;;;0.90;;
5414;SDS011;2730;51.512;7.504;2023-04-01T06:08:22;1.25;;;1.15;;
5414;SDS011;2730;51.512;7.504;2023-04-01T06:10:55;1.00;;;1.00;;
5414;SDS011;2730;51.512;7.504;2023-04-01T06:13:34;1.33;;;1.08;;
5414;SDS011;2730;51.512;7.504;2023-04-01T06:16:14;0.90;;;0.90;;
5414;SDS011;2730;51.512;7.504;2023-04-01T06:18:55;1.00;;;0.90;;
5414;SDS011;2730;51.512;7.504;2023-04-01T06:21:37;2.75;;;1.00;;
5414;SDS011;2730;51.512;7.504;2023-04-01T06:24:24;0.93;;;0.93;;
5414;SDS011;2730;51.512;7.504;2023-04-01T06:27:04;0.80;;;0.80;;
5414;SDS011;2730;51.512;7.504;2023-04-01T06:29:47;0.90;;;0.90;;
5414;SDS011;2730;51.512;7.504;2023-04-01T06:32:28;0.90;;;0.90;;
5414;SDS011;2730;51.512;7.504;2023-04-01T06:35:24;1.00;;;1.00;;
5414;SDS011;2730;51.512;7.504;2023-04-01T06:38:05;0.80;;;0.80;;
5414;SDS011;2730;51.512;7.504;2023-04-01T06:40:59;1.00;;;1.00;;
5414;SDS011;2730;51.512;7.504;2023-04-01T06:43:45;1.10;;;0.90;;
5414;SDS011;2730;51.512;7.504;2023-04-01T06:46:19;0.90;;;0.90;;
5414;SDS011;2730;51.512;7.504;2023-04-01T06:49:05;1.42;;;1.42;;
5414;SDS011;2730;51.512;7.504;2023-04-01T06:51:43;0.80;;;0.80;;
5414;SDS011;2730;51.512;7.504;2023-04-01T06:54:17;1.67;;;0.90;;
5414;SDS011;2730;51.512;7.504;2023-04-01T06:56:49;0.80;;;0.80;;
5414;SDS011;2730;51.512;7.504;2023-04-01T06:59:25;2.15;;;0.82;;
5414;SDS011;2730;51.512;7.504;2023-04-01T07:01:54;1.88;;;1.00;;
5414;SDS011;2730;51.512;7.504;2023-04-01T07:04:25;0.80;;;0.80;;
5414;SDS011;2730;51.512;7.504;2023-04-01T07:06:56;0.80;;;0.80;;
5414;SDS011;2730;51.512;7.504;2023-04-01T07:09:26;0.70;;;0.70;;
5414;SDS011;2730;51.512;7.504;2023-04-01T07:11:59;0.80;;;0.80;;
5414;SDS011;2730;51.512;7.504;2023-04-01T07:14:29;0.80;;;0.80;;
5414;SDS011;2730;51.512;7.504;2023-04-01T07:17:00;0.80;;;0.80;;
5414;SDS011;2730;51.512;7.504;2023-04-01T07:19:36;0.70;;;0.70;;
5414;SDS011;2730;51.512;7.504;2023-04-01T07:22:13;1.33;;;0.70;;
5414;SDS011;2730;51.512;7.504;2023-04-01T07:24:47;0.80;;;0.80;;
5414;SDS011;2730;51.512;7.504;2023-04-01T07:27:16;0.80;;;0.80;;
5414;SDS011;2730;51.512;7.504;2023-04-01T07:29:43;0.70;;;0.70;;
5414;SDS011;2730;51.512;7.504;2023-04-01T07:32:13;1.10;;;1.00;;
5414;SDS011;2730;51.512;7.504;2023-04-01T07:34:50;1.00;;;1.00;;
5414;SDS011;2730;51.512;7.504;2023-04-01T07:37:23;1.02;;;0.98;;
5414;SDS011;2730;51.512;7.504;2023-04-01T07:39:58;0.80;;;0.80;;
5414;SDS011;2730;51.512;7.504;2023-04-01T07:42:37;0.90;;;0.90;;
5414;SDS011;2730;51.512;7.504;2023-04-01T07:45:16;3.70;;;0.90;;
5414;SDS011;2730;51.512;7.504;2023-04-01T07:47:51;0.80;;;0.80;;
5414;SDS011;2730;51.512;7.504;2023-04-01T07:50:26;0.70;;;0.70;;
5414;SDS011;2730;51.512;7.504;2023-04-01T07:52:58;1.00;;;0.90;;
5414;SDS011;2730;51.512;7.504;2023-04-01T07:55:36;0.85;;;0.85;;
5414;SDS011;2730;51.512;7.504;2023-04-01T07:58:12;0.90;;;0.90;;
5414;SDS011;2730;51.512;7.504;2023-04-01T08:00:44;1.98;;;1.10;;
5414;SDS011;2730;51.512;7.504;2023-04-01T08:03:24;1.00;;;0.82;;
5414;SDS011;2730;51.512;7.504;2023-04-01T08:06:00;1.05;;;1.00;;
5414;SDS011;2730;51.512;7.504;2023-04-01T08:08:36;0.93;;;0.93;;
5414;SDS011;2730;51.512;7.504;2023-04-01T08:11:13;0.90;;;0.90;;
5414;SDS011;2730;51.512;7.504;2023-04-01T08:13:51;0.90;;;0.90;;
5414;SDS011;2730;51.512;7.504;2023-04-01T08:16:26;1.10;;;1.00;;
5414;SDS011;2730;51.512;7.504;2023-04-01T08:19:02;0.93;;;0.93;;
5414;SDS011;2730;51.512;7.504;2023-04-01T08:21:41;2.15;;;0.80;;
5414;SDS011;2730;51.512;7.504;2023-04-01T08:24:11;2.35;;;1.00;;
5414;SDS011;2730;51.512;7.504;2023-04-01T08:26:46;0.90;;;0.90;;
5414;SDS011;2730;51.512;7.504;2023-04-01T08:29:18;1.20;;;1.10;;
5414;SDS011;2730;51.512;7.504;2023-04-01T08:31:48;1.02;;;0.98;;
5414;SDS011;2730;51.512;7.504;2023-04-01T08:34:20;1.05;;;1.00;;
5414;SDS011;2730;51.512;7.504;2023-04-01T08:36:50;1.20;;;1.05;;
5414;SDS011;2730;51.512;7.504;2023-04-01T08:39:22;2.65;;;1.30;;
5414;SDS011;2730;51.512;7.504;2023-04-01T08:42:08;1.20;;;1.10;;
5414;SDS011;2730;51.512;7.504;2023-04-01T08:44:53;0.95;;;0.95;;
5414;SDS011;2730;51.512;7.504;2023-04-01T08:50:52;0.93;;;0.80;;
5414;SDS011;2730;51.512;7.504;2023-04-01T08:53:39;1.08;;;0.98;;
5414;SDS011;2730;51.512;7.504;2023-04-01T08:56:17;1.27;;;0.90;;
5414;SDS011;2730;51.512;7.504;2023-04-01T08:58:59;1.05;;;1.05;;
5414;SDS011;2730;51.512;7.504;2023-04-01T09:01:52;0.95;;;0.95;;
5414;SDS011;2730;51.512;7.504;2023-04-01T09:04:41;0.95;;;0.90;;
5414;SDS011;2730;51.512;7.504;2023-04-01T09:07:29;1.10;;;1.00;;
5414;SDS011;2730;51.512;7.504;2023-04-01T09:12:57;1.38;;;1.27;;
5414;SDS011;2730;51.512;7.504;2023-04-01T09:18:51;1.40;;;1.30;;
5414;SDS011;2730;51.512;7.504;2023-04-01T09:24:44;1.30;;;1.20;;
5414;SDS011;2730;51.512;7.504;2023-04-01T09:27:26;1.50;;;1.40;;
5414;SDS011;2730;51.512;7.504;2023-04-01T09:30:06;1.30;;;1.20;;
5414;SDS011;2730;51.512;7.504;2023-04-01T09:36:15;1.55;;;1.45;;
5414;SDS011;2730;51.512;7.504;2023-04-01T09:38:52;1.63;;;1.50;;
5414;SDS011;2730;51.512;7.504;2023-04-01T09:41:27;1.50;;;1.40;;
5414;SDS011;2730;51.512;7.504;2023-04-01T09:44:00;2.38;;;1.80;;
5414;SDS011;2730;51.512;7.504;2023-04-01T09:46:37;1.77;;;1.67;;
5414;SDS011;2730;51.512;7.504;2023-04-01T09:52:30;1.83;;;1.73;;
5414;SDS011;2730;51.512;7.504;2023-04-01T09:55:14;1.80;;;1.70;;
5414;SDS011;2730;51.512;7.504;2023-04-01T10:01:02;2.08;;;1.90;;
5414;SDS011;2730;51.512;7.504;2023-04-01T10:07:19;2.47;;;2.28;;
5414;SDS011;2730;51.512;7.504;2023-04-01T10:27:49;4.55;;;3.60;;
5414;SDS011;2730;51.512;7.504;2023-04-01T10:33:44;2.97;;;2.78;;
5414;SDS011;2730;51.512;7.504;2023-04-01T10:45:29;3.58;;;3.28;;
5414;SDS011;2730;51.512;7.504;2023-04-01T10:48:23;3.45;;;3.15;;
5414;SDS011;2730;51.512;7.504;2023-04-01T10:51:22;3.83;;;3.53;;
5414;SDS011;2730;51.512;7.504;2023-04-01T10:54:09;3.38;;;3.17;;
5414;SDS011;2730;51.512;7.504;2023-04-01T10:57:02;3.45;;;3.15;;
5414;SDS011;2730;51.512;7.504;2023-04-01T11:05:47;3.90;;;3.50;;
5414;SDS011;2730;51.512;7.504;2023-04-01T11:14:42;3.70;;;3.20;;
5414;SDS011;2730;51.512;7.504;2023-04-01T11:23:41;3.20;;;2.78;;
5414;SDS011;2730;51.512;7.504;2023-04-01T11:26:20;4.50;;;2.70;;
5414;SDS011;2730;51.512;7.504;2023-04-01T11:28:58;3.28;;;3.03;;
5414;SDS011;2730;51.512;7.504;2023-04-01T11:31:43;3.40;;;3.10;;
5414;SDS011;2730;51.512;7.504;2023-04-01T11:34:24;3.15;;;2.72;;
5414;SDS011;2730;51.512;7.504;2023-04-01T11:37:14;4.38;;;3.15;;
5414;SDS011;2730;51.512;7.504;2023-04-01T11:39:54;6.20;;;3.90;;
5414;SDS011;2730;51.512;7.504;2023-04-01T11:42:31;2.85;;;2.65;;
5414;SDS011;2730;51.512;7.504;2023-04-01T11:45:12;3.65;;;3.30;;
5414;SDS011;2730;51.512;7.504;2023-04-01T11:47:52;3.15;;;2.95;;
5414;SDS011;2730;51.512;7.504;2023-04-01T11:50:31;3.72;;;3.50;;
5414;SDS011;2730;51.512;7.504;2023-04-01T11:53:13;3.05;;;2.83;;
5414;SDS011;2730;51.512;7.504;2023-04-01T11:55:50;3.63;;;2.80;;
5414;SDS011;2730;51.512;7.504;2023-04-01T11:58:28;3.47;;;3.15;;
5414;SDS011;2730;51.512;7.504;2023-04-01T12:07:03;5.50;;;3.90;;
5414;SDS011;2730;51.512;7.504;2023-04-01T12:09:44;3.90;;;3.55;;
5414;SDS011;2730;51.512;7.504;2023-04-01T12:12:20;4.20;;;3.47;;
5414;SDS011;2730;51.512;7.504;2023-04-01T12:14:59;4.15;;;3.70;;
5414;SDS011;2730;51.512;7.504;2023-04-01T12:17:34;6.22;;;3.50;;
5414;SDS011;2730;51.512;7.504;2023-04-01T12:20:13;3.90;;;3.55;;
5414;SDS011;2730;51.512;7.504;2023-04-01T12:22:55;5.78;;;4.10;;
5414;SDS011;2730;51.512;7.504;2023-04-01T12:25:38;4.32;;;3.92;;
5414;SDS011;2730;51.512;7.504;2023-04-01T12:28:21;4.35;;;3.70;;
5414;SDS011;2730;51.512;7.504;2023-04-01T12:30:58;3.92;;;3.53;;
5414;SDS011;2730;51.512;7.504;2023-04-01T12:33:47;3.75;;;3.45;;
5414;SDS011;2730;51.512;7.504;2023-04-01T12:36:24;3.05;;;2.78;;
5414;SDS011;2730;51.512;7.504;2023-04-01T12:39:17;3.97;;;3.60;;
5414;SDS011;2730;51.512;7.504;2023-04-01T12:41:58;3.40;;;3.10;;
5414;SDS011;2730;51.512;7.504;2023-04-01T12:44:36;3.58;;;3.28;;
5414;SDS011;2730;51.512;7.504;2023-04-01T12:50:33;3.08;;;2.63;;
5414;SDS011;2730;51.512;7.504;2023-04-01T12:56:13;3.00;;;2.70;;
5414;SDS011;2730;51.512;7.504;2023-04-01T12:58:58;2.72;;;2.50;;
5414;SDS011;2730;51.512;7.504;2023-04-01T13:04:52;2.75;;;2.50;;
5414;SDS011;2730;51.512;7.504;2023-04-01T13:07:50;4.28;;;3.20;;
5414;SDS011;2730;51.512;7.504;2023-04-01T13:10:27;4.63;;;3.88;;
5414;SDS011;2730;51.512;7.504;2023-04-01T13:13:15;3.67;;;3.30;;
5414;SDS011;2730;51.512;7.504;2023-04-01T13:15:52;4.13;;;3.58;;
5414;SDS011;2730;51.512;7.504;2023-04-01T13:18:27;9.30;;;4.90;;
5414;SDS011;2730;51.512;7.504;2023-04-01T13:21:02;5.72;;;4.82;;
5414;SDS011;2730;51.512;7.504;2023-04-01T13:23:38;4.70;;;4.30;;
5414;SDS011;2730;51.512;7.504;2023-04-01T13:26:17;4.95;;;4.20;;
5414;SDS011;2730;51.512;7.504;2023-04-01T13:28:50;5.63;;;4.05;;
5414;SDS011;2730;51.512;7.504;2023-04-01T13:31:46;5.00;;;4.50;;
5414;SDS011;2730;51.512;7.504;2023-04-01T13:34:24;4.57;;;4.18;;
5414;SDS011;2730;51.512;7.504;2023-04-01T13:37:14;4.45;;;4.05;;
5414;SDS011;2730;51.512;7.504;2023-04-01T13:39:57;6.00;;;5.10;;
5414;SDS011;2730;51.512;7.504;2023-04-01T13:42:32;4.93;;;4.40;;
5414;SDS011;2730;51.512;7.504;2023-04-01T13:45:09;9.45;;;4.65;;
5414;SDS011;2730;51.512;7.504;2023-04-01T13:54:08;5.28;;;4.75;;
5414;SDS011;2730;51.512;7.504;2023-04-01T13:57:02;5.93;;;5.22;;
5414;SDS011;2730;51.512;7.504;2023-04-01T13:59:48;5.85;;;4.70;;
5414;SDS011;2730;51.512;7.504;2023-04-01T14:05:51;6.20;;;4.30;;
5414;SDS011;2730;51.512;7.504;2023-04-01T14:08:29;5.45;;;3.80;;
5414;SDS011;2730;51.512;7.504;2023-04-01T14:11:25;4.95;;;4.22;;
5414;SDS011;2730;51.512;7.504;2023-04-01T14:13:59;4.65;;;4.15;;
5414;SDS011;2730;51.512;7.504;2023-04-01T14:16:55;7.65;;;5.10;;
5414;SDS011;2730;51.512;7.504;2023-04-01T14:19:48;4.25;;;3.88;;
5414;SDS011;2730;51.512;7.504;2023-04-01T14:22:32;9.60;;;4.80;;
5414;SDS011;2730;51.512;7.504;2023-04-01T14:25:30;6.07;;;4.55;;
5414;SDS011;2730;51.512;7.504;2023-04-01T14:28:18;5.30;;;4.47;;
5414;SDS011;2730;51.512;7.504;2023-04-01T14:30:57;8.15;;;5.22;;
5414;SDS011;2730;51.512;7.504;2023-04-01T14:33:41;5.00;;;4.60;;
5414;SDS011;2730;51.512;7.504;2023-04-01T14:36:23;4.80;;;4.30;;
5414;SDS011;2730;51.512;7.504;2023-04-01T14:39:15;6.65;;;4.70;;
5414;SDS011;2730;51.512;7.504;2023-04-01T14:41:58;4.45;;;4.05;;
5414;SDS011;2730;51.512;7.504;2023-04-01T14:47:46;3.70;;;3.40;;
5414;SDS011;2730;51.512;7.504;2023-04-01T14:50:17;3.38;;;3.00;;
5414;SDS011;2730;51.512;7.504;2023-04-01T14:52:49;4.60;;;3.28;;
5414;SDS011;2730;51.512;7.504;2023-04-01T14:55:32;3.67;;;3.38;;
5414;SDS011;2730;51.512;7.504;2023-04-01T14:58:09;3.40;;;3.10;;
5414;SDS011;2730;51.512;7.504;2023-04-01T15:03:40;3.33;;;3.03;;
5414;SDS011;2730;51.512;7.504;2023-04-01T15:06:27;3.40;;;3.10;;
5414;SDS011;2730;51.512;7.504;2023-04-01T15:09:10;3.75;;;3.45;;
5414;SDS011;2730;51.512;7.504;2023-04-01T15:11:48;5.43;;;3.55;;
5414;SDS011;2730;51.512;7.504;2023-04-01T15:17:33;3.22;;;2.92;;
5414;SDS011;2730;51.512;7.504;2023-04-01T15:20:43;4.30;;;3.90;;
5414;SDS011;2730;51.512;7.504;2023-04-01T15:23:21;3.42;;;3.17;;
5414;SDS011;2730;51.512;7.504;2023-04-01T15:26:08;4.78;;;4.30;;
5414;SDS011;2730;51.512;7.504;2023-04-01T15:28:57;6.23;;;5.20;;
5414;SDS011;2730;51.512;7.504;2023-04-01T15:31:36;6.35;;;4.88;;
5414;SDS011;2730;51.512;7.504;2023-04-01T15:34:15;10.32;;;5.53;;
5414;SDS011;2730;51.512;7.504;2023-04-01T15:36:53;5.22;;;4.72;;
5414;SDS011;2730;51.512;7.504;2023-04-01T15:39:28;6.70;;;4.78;;
5414;SDS011;2730;51.512;7.504;2023-04-01T15:42:28;7.90;;;5.13;;
5414;SDS011;2730;51.512;7.504;2023-04-01T15:45:08;6.30;;;5.18;;
5414;SDS011;2730;51.512;7.504;2023-04-01T15:47:42;10.45;;;6.80;;
5414;SDS011;2730;51.512;7.504;2023-04-01T15:50:26;8.20;;;5.78;;
5414;SDS011;2730;51.512;7.504;2023-04-01T15:53:18;10.70;;;7.05;;
5414;SDS011;2730;51.512;7.504;2023-04-01T15:55:57;9.68;;;7.07;;
5414;SDS011;2730;51.512;7.504;2023-04-01T15:58:38;9.63;;;7.22;;
5414;SDS011;2730;51.512;7.504;2023-04-01T16:01:15;11.35;;;7.43;;
5414;SDS011;2730;51.512;7.504;2023-04-01T16:03:52;10.60;;;7.50;;
5414;SDS011;2730;51.512;7.504;2023-04-01T16:06:35;16.15;;;7.75;;
5414;SDS011;2730;51.512;7.504;2023-04-01T16:12:11;13.43;;;8.75;;
5414;SDS011;2730;51.512;7.504;2023-04-01T16:14:48;10.52;;;7.47;;
5414;SDS011;2730;51.512;7.504;2023-04-01T16:17:30;11.63;;;8.25;;
5414;SDS011;2730;51.512;7.504;2023-04-01T16:20:17;12.93;;;8.48;;
5414;SDS011;2730;51.512;7.504;2023-04-01T16:22:48;13.80;;;8.88;;
5414;SDS011;2730;51.512;7.504;2023-04-01T16:25:24;12.95;;;9.05;;
5414;SDS011;2730;51.512;7.504;2023-04-01T16:28:00;11.23;;;7.85;;
5414;SDS011;2730;51.512;7.504;2023-04-01T16:30:42;16.05;;;9.50;;
5414;SDS011;2730;51.512;7.504;2023-04-01T16:33:14;11.43;;;7.80;;
5414;SDS011;2730;51.512;7.504;2023-04-01T16:35:50;12.68;;;8.02;;
5414;SDS011;2730;51.512;7.504;2023-04-01T16:38:22;11.38;;;7.32;;
5414;SDS011;2730;51.512;7.504;2023-04-01T16:40:58;11.25;;;7.88;;
5414;SDS011;2730;51.512;7.504;2023-04-01T16:43:35;13.43;;;9.38;;
5414;SDS011;2730;51.512;7.504;2023-04-01T16:46:14;8.98;;;6.70;;
5414;SDS011;2730;51.512;7.504;2023-04-01T16:48:57;9.40;;;6.95;;
5414;SDS011;2730;51.512;7.504;2023-04-01T16:51:26;9.05;;;5.90;;
5414;SDS011;2730;51.512;7.504;2023-04-01T16:54:04;8.50;;;6.70;;
5414;SDS011;2730;51.512;7.504;2023-04-01T16:56:38;6.22;;;5.00;;
5414;SDS011;2730;51.512;7.504;2023-04-01T16:59:13;7.03;;;5.60;;
5414;SDS011;2730;51.512;7.504;2023-04-01T17:01:49;5.88;;;4.85;;
5414;SDS011;2730;51.512;7.504;2023-04-01T17:04:23;8.93;;;5.65;;
5414;SDS011;2730;51.512;7.504;2023-04-01T17:06:58;8.57;;;6.25;;
5414;SDS011;2730;51.512;7.504;2023-04-01T17:09:36;6.60;;;5.90;;
5414;SDS011;2730;51.512;7.504;2023-04-01T17:12:23;8.45;;;5.97;;
5414;SDS011;2730;51.512;7.504;2023-04-01T17:14:59;8.18;;;5.60;;
5414;SDS011;2730;51.512;7.504;2023-04-01T17:17:40;7.18;;;5.65;;
5414;SDS011;2730;51.512;7.504;2023-04-01T17:20:19;6.43;;;5.40;;
5414;SDS011;2730;51.512;7.504;2023-04-01T17:22:59;8.27;;;5.57;;
5414;SDS011;2730;51.512;7.504;2023-04-01T17:25:34;7.70;;;5.80;;
5414;SDS011;2730;51.512;7.504;2023-04-01T17:28:20;8.82;;;5.57;;
5414;SDS011;2730;51.512;7.504;2023-04-01T17:30:55;7.47;;;6.03;;
5414;SDS011;2730;51.512;7.504;2023-04-01T17:33:35;8.75;;;5.80;;
5414;SDS011;2730;51.512;7.504;2023-04-01T17:36:24;8.70;;;6.35;;
5414;SDS011;2730;51.512;7.504;2023-04-01T17:41:57;9.00;;;6.30;;
5414;SDS011;2730;51.512;7.504;2023-04-01T17:44:36;10.32;;;6.55;;
5414;SDS011;2730;51.512;7.504;2023-04-01T17:47:17;8.05;;;6.00;;
5414;SDS011;2730;51.512;7.504;2023-04-01T17:49:55;9.95;;;6.68;;
5414;SDS011;2730;51.512;7.504;2023-04-01T17:52:37;13.20;;;8.38;;
5414;SDS011;2730;51.512;7.504;2023-04-01T17:55:25;10.60;;;7.13;;
5414;SDS011;2730;51.512;7.504;2023-04-01T17:58:14;9.98;;;7.30;;
5414;SDS011;2730;51.512;7.504;2023-04-01T18:00:47;12.45;;;6.85;;
5414;SDS011;2730;51.512;7.504;2023-04-01T18:03:32;9.32;;;6.47;;